sensor_id;sensor_type;location;lat;lon;timestamp;pressure;altitude;pressure_sealevel;temperature;humidity
48636;BME280;34429;52.332;5.614;2022-09-17T00:01:50;101227.25;;;12.54;100.00
48636;BME280;34429;52.332;5.614;2022-09-17T00:04:21;101213.63;;;12.56;100.00
48636;BME280;34429;52.332;5.614;2022-09-17T00:06:50;101223.00;;;12.52;100.00
48636;BME280;34429;52.332;5.614;2022-09-17T00:09:21;101220.44;;;12.50;100.00
48636;BME280;34429;52.332;5.614;2022-09-17T00:11:49;101227.38;;;12.43;100.00
48636;BME280;34429;52.332;5.614;2022-09-17T00:14:17;101225.38;;;12.45;100.00
48636;BME280;34429;52.332;5.614;2022-09-17T00:16:47;101230.53;;;12.58;100.00
48636;BME280;34429;52.332;5.614;2022-09-17T00:19:17;101235.53;;;12.72;100.00
48636;BME280;34429;52.332;5.614;2022-09-17T00:21:50;101233.38;;;12.56;100.00
48636;BME280;34429;52.332;5.614;2022-09-17T00:24:19;101222.56;;;12.56;100.00
48636;BME280;34429;52.332;5.614;2022-09-17T00:26:47;101212.34;;;12.60;100.00
48636;BME280;34429;52.332;5.614;2022-09-17T00:29:16;101234.50;;;12.54;100.00
48636;BME280;34429;52.332;5.614;2022-09-17T00:31:44;101230.09;;;12.62;100.00
48636;BME280;34429;52.332;5.614;2022-09-17T00:34:13;101239.50;;;12.68;100.00
48636;BME280;34429;52.332;5.614;2022-09-17T00:36:41;101244.06;;;12.68;100.00
48636;BME280;34429;52.332;5.614;2022-09-17T00:39:12;101262.22;;;12.66;100.00
48636;BME280;34429;52.332;5.614;2022-09-17T00:41:41;101255.41;;;12.61;100.00
48636;BME280;34429;52.332;5.614;2022-09-17T00:44:39;101248.00;;;12.54;100.00
48636;BME280;34429;52.332;5.614;2022-09-17T00:47:13;101226.06;;;12.27;100.00
48636;BME280;34429;52.332;5.614;2022-09-17T00:49:43;101241.00;;;12.32;100.00
48636;BME280;34429;52.332;5.614;2022-09-17T00:52:12;101229.91;;;12.35;100.00
48636;BME280;34429;52.332;5.614;2022-09-17T00:54:45;101239.88;;;12.34;100.00
48636;BME280;34429;52.332;5.614;2022-09-17T00:57:17;101257.31;;;12.30;100.00
48636;BME280;34429;52.332;5.614;2022-09-17T00:59:45;101251.94;;;12.30;100.00
48636;BME280;34429;52.332;5.614;2022-09-17T01:02:14;101245.97;;;12.36;100.00
48636;BME280;34429;52.332;5.614;2022-09-17T01:04:42;101258.91;;;12.42;100.00
48636;BME280;34429;52.332;5.614;2022-09-17T01:07:17;101251.63;;;12.23;100.00
48636;BME280;34429;52.332;5.614;2022-09-17T01:09:54;101251.00;;;12.10;100.00
48636;BME280;34429;52.332;5.614;2022-09-17T01:12:38;101244.94;;;12.18;100.00
48636;BME280;34429;52.332;5.614;2022-09-17T01:15:21;101246.50;;;12.20;100.00
48636;BME280;34429;52.332;5.614;2022-09-17T01:18:01;101249.59;;;12.16;100.00
48636;BME280;34429;52.332;5.614;2022-09-17T01:21:07;101242.38;;;12.16;100.00
48636;BME280;34429;52.332;5.614;2022-09-17T01:23:55;101241.50;;;12.06;100.00
48636;BME280;34429;52.332;5.614;2022-09-17T01:26:49;101243.19;;;12.07;100.00
48636;BME280;34429;52.332;5.614;2022-09-17T01:29:33;101241.34;;;12.07;100.00
48636;BME280;34429;52.332;5.614;2022-09-17T01:32:08;101252.38;;;11.95;100.00
48636;BME280;34429;52.332;5.614;2022-09-17T01:34:44;101250.63;;;12.15;100.00
48636;BME280;34429;52.332;5.614;2022-09-17T01:37:22;101246.09;;;12.25;100.00
48636;BME280;34429;52.332;5.614;2022-09-17T01:40:01;101248.22;;;12.21;100.00
48636;BME280;34429;52.332;5.614;2022-09-17T01:42:36;101242.53;;;12.24;100.00
48636;BME280;34429;52.332;5.614;2022-09-17T01:45:11;101244.34;;;12.14;100.00
48636;BME280;34429;52.332;5.614;2022-09-17T01:47:48;101249.03;;;12.12;100.00
48636;BME280;34429;52.332;5.614;2022-09-17T01:50:22;101260.06;;;11.99;100.00
48636;BME280;34429;52.332;5.614;2022-09-17T01:52:53;101263.34;;;12.03;100.00
48636;BME280;34429;52.332;5.614;2022-09-17T01:55:35;101269.22;;;12.18;100.00
48636;BME280;34429;52.332;5.614;2022-09-17T01:58:09;101267.22;;;12.20;100.00
48636;BME280;34429;52.332;5.614;2022-09-17T02:00:41;101280.50;;;12.33;100.00
48636;BME280;34429;52.332;5.614;2022-09-17T02:03:17;101271.56;;;12.42;100.00
48636;BME280;34429;52.332;5.614;2022-09-17T02:05:49;101270.03;;;12.49;100.00
48636;BME280;34429;52.332;5.614;2022-09-17T02:08:21;101266.03;;;12.43;100.00
48636;BME280;34429;52.332;5.614;2022-09-17T02:10:54;101258.47;;;12.37;100.00
48636;BME280;34429;52.332;5.614;2022-09-17T02:13:26;101265.56;;;12.29;100.00
48636;BME280;34429;52.332;5.614;2022-09-17T02:15:59;101260.03;;;12.30;100.00
48636;BME280;34429;52.332;5.614;2022-09-17T02:18:36;101267.09;;;12.21;100.00
48636;BME280;34429;52.332;5.614;2022-09-17T02:21:13;101274.56;;;12.08;100.00
48636;BME280;34429;52.332;5.614;2022-09-17T02:23:49;101284.25;;;12.11;100.00
48636;BME280;34429;52.332;5.614;2022-09-17T02:26:21;101265.00;;;12.25;100.00
48636;BME280;34429;52.332;5.614;2022-09-17T02:28:54;101268.94;;;12.21;100.00
48636;BME280;34429;52.332;5.614;2022-09-17T02:31:24;101270.34;;;12.15;100.00
48636;BME280;34429;52.332;5.614;2022-09-17T02:33:58;101263.69;;;12.19;100.00
48636;BME280;34429;52.332;5.614;2022-09-17T02:36:29;101263.78;;;12.08;100.00
48636;BME280;34429;52.332;5.614;2022-09-17T02:39:00;101267.16;;;12.00;100.00
48636;BME280;34429;52.332;5.614;2022-09-17T02:41:37;101263.88;;;11.97;100.00
48636;BME280;34429;52.332;5.614;2022-09-17T02:44:16;101273.69;;;11.98;100.00
48636;BME280;34429;52.332;5.614;2022-09-17T02:47:01;101266.94;;;11.92;100.00
48636;BME280;34429;52.332;5.614;2022-09-17T02:49:46;101263.22;;;12.14;100.00
48636;BME280;34429;52.332;5.614;2022-09-17T02:52:29;101262.81;;;12.09;100.00
48636;BME280;34429;52.332;5.614;2022-09-17T02:55:08;101257.75;;;12.25;100.00
48636;BME280;34429;52.332;5.614;2022-09-17T02:57:43;101257.88;;;12.24;100.00
48636;BME280;34429;52.332;5.614;2022-09-17T03:00:17;101259.13;;;12.20;100.00
48636;BME280;34429;52.332;5.614;2022-09-17T03:02:49;101260.84;;;12.21;100.00
48636;BME280;34429;52.332;5.614;2022-09-17T03:05:22;101263.69;;;12.19;100.00
48636;BME280;34429;52.332;5.614;2022-09-17T03:07:50;101271.50;;;12.22;100.00
48636;BME280;34429;52.332;5.614;2022-09-17T03:10:21;101267.69;;;12.35;100.00
48636;BME280;34429;52.332;5.614;2022-09-17T03:12:54;101287.44;;;12.25;100.00
48636;BME280;34429;52.332;5.614;2022-09-17T03:15:22;101292.81;;;12.25;100.00
48636;BME280;34429;52.332;5.614;2022-09-17T03:17:51;101276.69;;;12.35;100.00
48636;BME280;34429;52.332;5.614;2022-09-17T03:20:22;101279.25;;;12.37;100.00
48636;BME280;34429;52.332;5.614;2022-09-17T03:22:50;101279.63;;;12.32;100.00
48636;BME280;34429;52.332;5.614;2022-09-17T03:25:18;101270.00;;;11.99;100.00
48636;BME280;34429;52.332;5.614;2022-09-17T03:27:47;101274.56;;;12.08;100.00
48636;BME280;34429;52.332;5.614;2022-09-17T03:30:17;101272.06;;;12.16;100.00
48636;BME280;34429;52.332;5.614;2022-09-17T03:32:45;101275.00;;;12.03;100.00
48636;BME280;34429;52.332;5.614;2022-09-17T03:35:13;101281.06;;;11.96;100.00
48636;BME280;34429;52.332;5.614;2022-09-17T03:37:44;101281.41;;;11.91;100.00
48636;BME280;34429;52.332;5.614;2022-09-17T03:40:13;101284.19;;;12.01;100.00
48636;BME280;34429;52.332;5.614;2022-09-17T03:42:41;101282.19;;;11.93;100.00
48636;BME280;34429;52.332;5.614;2022-09-17T03:45:10;101287.34;;;11.85;100.00
48636;BME280;34429;52.332;5.614;2022-09-17T03:47:38;101274.59;;;11.87;100.00
48636;BME280;34429;52.332;5.614;2022-09-17T03:50:07;101276.78;;;11.93;100.00
48636;BME280;34429;52.332;5.614;2022-09-17T03:52:35;101280.53;;;12.02;100.00
48636;BME280;34429;52.332;5.614;2022-09-17T03:55:07;101280.00;;;11.87;100.00
48636;BME280;34429;52.332;5.614;2022-09-17T03:57:36;101279.50;;;11.72;100.00
48636;BME280;34429;52.332;5.614;2022-09-17T04:00:05;101276.41;;;11.77;100.00
48636;BME280;34429;52.332;5.614;2022-09-17T04:02:34;101284.88;;;11.72;100.00
48636;BME280;34429;52.332;5.614;2022-09-17T04:05:03;101274.75;;;11.64;100.00
48636;BME280;34429;52.332;5.614;2022-09-17T04:07:31;101280.16;;;11.43;100.00
48636;BME280;34429;52.332;5.614;2022-09-17T04:09:59;101283.13;;;11.40;100.00
48636;BME280;34429;52.332;5.614;2022-09-17T04:12:32;101283.78;;;11.32;100.00
48636;BME280;34429;52.332;5.614;2022-09-17T04:15:00;101288.69;;;11.27;100.00
48636;BME280;34429;52.332;5.614;2022-09-17T04:17:28;101281.72;;;11.25;100.00
48636;BME280;34429;52.332;5.614;2022-09-17T04:19:57;101285.81;;;11.40;100.00
48636;BME280;34429;52.332;5.614;2022-09-17T04:22:26;101294.81;;;11.50;100.00
48636;BME280;34429;52.332;5.614;2022-09-17T04:24:54;101286.06;;;11.58;100.00
48636;BME280;34429;52.332;5.614;2022-09-17T04:27:22;101279.28;;;11.64;100.00
48636;BME280;34429;52.332;5.614;2022-09-17T04:29:53;101284.34;;;11.78;100.00
48636;BME280;34429;52.332;5.614;2022-09-17T04:32:21;101274.47;;;11.67;100.00
48636;BME280;34429;52.332;5.614;2022-09-17T04:34:50;101276.94;;;11.70;100.00
48636;BME280;34429;52.332;5.614;2022-09-17T04:37:18;101277.84;;;11.60;100.00
48636;BME280;34429;52.332;5.614;2022-09-17T04:39:48;101283.97;;;11.62;100.00
48636;BME280;34429;52.332;5.614;2022-09-17T04:42:19;101287.03;;;11.57;100.00
48636;BME280;34429;52.332;5.614;2022-09-17T04:44:47;101281.59;;;11.47;100.00
48636;BME280;34429;52.332;5.614;2022-09-17T04:47:18;101284.97;;;11.39;100.00
48636;BME280;34429;52.332;5.614;2022-09-17T04:49:46;101290.34;;;11.39;100.00
48636;BME280;34429;52.332;5.614;2022-09-17T04:52:15;101286.72;;;11.29;100.00
48636;BME280;34429;52.332;5.614;2022-09-17T04:54:44;101289.75;;;11.36;100.00
48636;BME280;34429;52.332;5.614;2022-09-17T04:57:12;101291.06;;;11.42;100.00
48636;BME280;34429;52.332;5.614;2022-09-17T04:59:40;101294.88;;;11.39;100.00
48636;BME280;34429;52.332;5.614;2022-09-17T05:02:09;101290.00;;;11.33;100.00
48636;BME280;34429;52.332;5.614;2022-09-17T05:04:39;101296.84;;;11.37;100.00
48636;BME280;34429;52.332;5.614;2022-09-17T05:07:08;101289.75;;;11.36;100.00
48636;BME280;34429;52.332;5.614;2022-09-17T05:09:36;101287.00;;;11.47;100.00
48636;BME280;34429;52.332;5.614;2022-09-17T05:12:05;101294.81;;;11.50;100.00
48636;BME280;34429;52.332;5.614;2022-09-17T05:14:33;101305.59;;;11.50;100.00
48636;BME280;34429;52.332;5.614;2022-09-17T05:17:01;101308.03;;;11.53;100.00
48636;BME280;34429;52.332;5.614;2022-09-17T05:19:30;101321.19;;;11.68;100.00
48636;BME280;34429;52.332;5.614;2022-09-17T05:22:00;101326.25;;;11.82;100.00
48636;BME280;34429;52.332;5.614;2022-09-17T05:24:29;101321.53;;;11.96;100.00
48636;BME280;34429;52.332;5.614;2022-09-17T05:26:58;101316.16;;;11.84;100.00
48636;BME280;34429;52.332;5.614;2022-09-17T05:29:26;101325.19;;;11.73;100.00
48636;BME280;34429;52.332;5.614;2022-09-17T05:31:54;101324.66;;;11.80;100.00
48636;BME280;34429;52.332;5.614;2022-09-17T05:34:23;101330.78;;;11.61;100.00
48636;BME280;34429;52.332;5.614;2022-09-17T05:36:51;101327.34;;;11.58;100.00
48636;BME280;34429;52.332;5.614;2022-09-17T05:39:22;101331.09;;;11.67;100.00
48636;BME280;34429;52.332;5.614;2022-09-17T05:41:50;101319.81;;;11.73;100.00
48636;BME280;34429;52.332;5.614;2022-09-17T05:44:19;101331.44;;;11.74;100.00
48636;BME280;34429;52.332;5.614;2022-09-17T05:46:48;101330.97;;;11.69;100.00
48636;BME280;34429;52.332;5.614;2022-09-17T05:49:16;101330.59;;;11.73;100.00
48636;BME280;34429;52.332;5.614;2022-09-17T05:51:44;101331.63;;;11.61;100.00
48636;BME280;34429;52.332;5.614;2022-09-17T05:54:12;101317.56;;;11.57;100.00
48636;BME280;34429;52.332;5.614;2022-09-17T05:56:43;101323.38;;;11.53;100.00
48636;BME280;34429;52.332;5.614;2022-09-17T05:59:12;101315.78;;;11.47;100.00
48636;BME280;34429;52.332;5.614;2022-09-17T06:01:40;101324.06;;;11.34;100.00
48636;BME280;34429;52.332;5.614;2022-09-17T06:04:08;101318.47;;;11.47;100.00
48636;BME280;34429;52.332;5.614;2022-09-17T06:06:37;101327.56;;;11.46;100.00
48636;BME280;34429;52.332;5.614;2022-09-17T06:09:06;101333.81;;;11.46;100.00
48636;BME280;34429;52.332;5.614;2022-09-17T06:11:35;101344.53;;;11.57;100.00
48636;BME280;34429;52.332;5.614;2022-09-17T06:14:07;101344.78;;;11.54;100.00
48636;BME280;34429;52.332;5.614;2022-09-17T06:16:36;101340.81;;;11.58;100.00
48636;BME280;34429;52.332;5.614;2022-09-17T06:19:04;101345.47;;;11.68;100.00
48636;BME280;34429;52.332;5.614;2022-09-17T06:21:32;101346.44;;;11.67;100.00
48636;BME280;34429;52.332;5.614;2022-09-17T06:24:04;101343.88;;;11.65;100.00
48636;BME280;34429;52.332;5.614;2022-09-17T06:26:32;101361.63;;;11.68;100.00
48636;BME280;34429;52.332;5.614;2022-09-17T06:29:01;101359.06;;;11.66;100.00
48636;BME280;34429;52.332;5.614;2022-09-17T06:31:32;101349.84;;;11.69;100.00
48636;BME280;34429;52.332;5.614;2022-09-17T06:34:00;101345.63;;;11.76;100.00
48636;BME280;34429;52.332;5.614;2022-09-17T06:36:29;101346.94;;;11.82;100.00
48636;BME280;34429;52.332;5.614;2022-09-17T06:38:58;101360.03;;;11.86;100.00
48636;BME280;34429;52.332;5.614;2022-09-17T06:41:26;101357.88;;;11.80;100.00
48636;BME280;34429;52.332;5.614;2022-09-17T06:43:54;101356.41;;;11.76;100.00
48636;BME280;34429;52.332;5.614;2022-09-17T06:46:23;101357.34;;;11.86;100.00
48636;BME280;34429;52.332;5.614;2022-09-17T06:48:54;101362.00;;;11.96;100.00
48636;BME280;34429;52.332;5.614;2022-09-17T06:51:22;101363.69;;;11.97;100.00
48636;BME280;34429;52.332;5.614;2022-09-17T06:53:50;101357.81;;;11.91;100.00
48636;BME280;34429;52.332;5.614;2022-09-17T06:56:19;101362.22;;;11.92;100.00
48636;BME280;34429;52.332;5.614;2022-09-17T06:58:47;101365.00;;;11.81;100.00
48636;BME280;34429;52.332;5.614;2022-09-17T07:01:15;101369.97;;;11.86;100.00
48636;BME280;34429;52.332;5.614;2022-09-17T07:03:43;101378.88;;;11.98;100.00
48636;BME280;34429;52.332;5.614;2022-09-17T07:06:16;101364.47;;;12.08;100.00
48636;BME280;34429;52.332;5.614;2022-09-17T07:08:45;101366.94;;;12.21;100.00
48636;BME280;34429;52.332;5.614;2022-09-17T07:11:14;101361.00;;;12.27;100.00
48636;BME280;34429;52.332;5.614;2022-09-17T07:13:42;101360.16;;;12.27;100.00
48636;BME280;34429;52.332;5.614;2022-09-17T07:16:11;101348.81;;;12.33;100.00
48636;BME280;34429;52.332;5.614;2022-09-17T07:18:39;101355.34;;;12.31;100.00
48636;BME280;34429;52.332;5.614;2022-09-17T07:21:08;101352.28;;;12.45;100.00
48636;BME280;34429;52.332;5.614;2022-09-17T07:23:39;101355.16;;;12.63;100.00
48636;BME280;34429;52.332;5.614;2022-09-17T07:26:12;101353.09;;;12.86;100.00
48636;BME280;34429;52.332;5.614;2022-09-17T07:28:41;101351.00;;;13.00;100.00
48636;BME280;34429;52.332;5.614;2022-09-17T07:31:11;101355.88;;;13.25;100.00
48636;BME280;34429;52.332;5.614;2022-09-17T07:33:40;101341.63;;;13.23;100.00
48636;BME280;34429;52.332;5.614;2022-09-17T07:36:11;101344.78;;;13.38;100.00
48636;BME280;34429;52.332;5.614;2022-09-17T07:38:44;101360.44;;;13.54;100.00
48636;BME280;34429;52.332;5.614;2022-09-17T07:41:14;101353.03;;;13.76;100.00
48636;BME280;34429;52.332;5.614;2022-09-17T07:43:43;101351.22;;;14.14;100.00
48636;BME280;34429;52.332;5.614;2022-09-17T07:46:13;101366.78;;;14.40;100.00
48636;BME280;34429;52.332;5.614;2022-09-17T07:48:42;101365.25;;;14.37;100.00
48636;BME280;34429;52.332;5.614;2022-09-17T07:51:14;101351.88;;;14.35;100.00
48636;BME280;34429;52.332;5.614;2022-09-17T07:53:46;101364.88;;;14.22;100.00
48636;BME280;34429;52.332;5.614;2022-09-17T07:56:14;101371.22;;;14.03;100.00
48636;BME280;34429;52.332;5.614;2022-09-17T07:58:43;101372.00;;;14.23;100.00
48636;BME280;34429;52.332;5.614;2022-09-17T08:01:13;101365.41;;;14.35;100.00
48636;BME280;34429;52.332;5.614;2022-09-17T08:03:46;101355.19;;;14.57;100.00
48636;BME280;34429;52.332;5.614;2022-09-17T08:06:17;101355.09;;;14.49;100.00
48636;BME280;34429;52.332;5.614;2022-09-17T08:08:48;101350.69;;;14.76;100.00
48636;BME280;34429;52.332;5.614;2022-09-17T08:11:18;101347.34;;;14.64;100.00
48636;BME280;34429;52.332;5.614;2022-09-17T08:13:47;101352.75;;;14.64;100.00
48636;BME280;34429;52.332;5.614;2022-09-17T08:16:16;101356.88;;;14.58;100.00
48636;BME280;34429;52.332;5.614;2022-09-17T08:18:45;101353.78;;;14.81;100.00
48636;BME280;34429;52.332;5.614;2022-09-17T08:21:15;101355.31;;;14.93;100.00
48636;BME280;34429;52.332;5.614;2022-09-17T08:23:44;101345.25;;;15.21;100.00
48636;BME280;34429;52.332;5.614;2022-09-17T08:26:16;101354.16;;;15.14;100.00
48636;BME280;34429;52.332;5.614;2022-09-17T08:28:48;101357.09;;;15.20;100.00
48636;BME280;34429;52.332;5.614;2022-09-17T08:31:20;101348.28;;;15.00;100.00
48636;BME280;34429;52.332;5.614;2022-09-17T08:33:49;101351.34;;;14.87;100.00
48636;BME280;34429;52.332;5.614;2022-09-17T08:36:18;101343.69;;;15.01;100.00
48636;BME280;34429;52.332;5.614;2022-09-17T08:38:50;101349.84;;;15.21;100.00
48636;BME280;34429;52.332;5.614;2022-09-17T08:41:29;101358.75;;;15.31;100.00
48636;BME280;34429;52.332;5.614;2022-09-17T08:44:14;101356.69;;;15.51;100.00
48636;BME280;34429;52.332;5.614;2022-09-17T08:46:47;101350.25;;;15.70;100.00
48636;BME280;34429;52.332;5.614;2022-09-17T08:49:25;101360.19;;;15.80;100.00
48636;BME280;34429;52.332;5.614;2022-09-17T08:52:10;101359.94;;;15.73;100.00
48636;BME280;34429;52.332;5.614;2022-09-17T08:54:49;101359.38;;;15.69;100.00
48636;BME280;34429;52.332;5.614;2022-09-17T08:57:28;101359.78;;;15.92;100.00
48636;BME280;34429;52.332;5.614;2022-09-17T09:00:03;101361.03;;;16.33;100.00
48636;BME280;34429;52.332;5.614;2022-09-17T09:02:47;101372.19;;;15.95;100.00
48636;BME280;34429;52.332;5.614;2022-09-17T09:05:22;101393.91;;;15.59;100.00
48636;BME280;34429;52.332;5.614;2022-09-17T09:07:59;101402.56;;;14.81;100.00
48636;BME280;34429;52.332;5.614;2022-09-17T09:10:34;101403.03;;;14.39;100.00
48636;BME280;34429;52.332;5.614;2022-09-17T09:13:09;101399.50;;;14.18;100.00
48636;BME280;34429;52.332;5.614;2022-09-17T09:15:41;101393.19;;;13.71;100.00
48636;BME280;34429;52.332;5.614;2022-09-17T09:18:17;101394.56;;;13.26;100.00
48636;BME280;34429;52.332;5.614;2022-09-17T09:20:49;101401.03;;;13.74;100.00
48636;BME280;34429;52.332;5.614;2022-09-17T09:23:26;101394.41;;;14.15;100.00
48636;BME280;34429;52.332;5.614;2022-09-17T09:26:07;101385.97;;;14.66;100.00
48636;BME280;34429;52.332;5.614;2022-09-17T09:29:02;101379.44;;;14.86;100.00
48636;BME280;34429;52.332;5.614;2022-09-17T09:31:49;101386.41;;;15.17;100.00
48636;BME280;34429;52.332;5.614;2022-09-17T09:34:21;101379.72;;;15.29;100.00
48636;BME280;34429;52.332;5.614;2022-09-17T09:36:50;101382.38;;;15.57;100.00
48636;BME280;34429;52.332;5.614;2022-09-17T09:39:23;101383.47;;;15.46;100.00
48636;BME280;34429;52.332;5.614;2022-09-17T09:41:57;101389.16;;;15.97;100.00
48636;BME280;34429;52.332;5.614;2022-09-17T09:44:30;101378.53;;;16.30;100.00
48636;BME280;34429;52.332;5.614;2022-09-17T09:47:10;101394.41;;;16.17;100.00
48636;BME280;34429;52.332;5.614;2022-09-17T09:49:52;101410.97;;;15.51;100.00
48636;BME280;34429;52.332;5.614;2022-09-17T09:52:36;101425.50;;;14.49;100.00
48636;BME280;34429;52.332;5.614;2022-09-17T09:55:21;101436.28;;;14.21;100.00
48636;BME280;34429;52.332;5.614;2022-09-17T09:58:00;101448.16;;;13.81;100.00
48636;BME280;34429;52.332;5.614;2022-09-17T10:00:35;101442.50;;;13.24;100.00
48636;BME280;34429;52.332;5.614;2022-09-17T10:03:21;101430.13;;;13.21;100.00
48636;BME280;34429;52.332;5.614;2022-09-17T10:05:55;101430.09;;;13.11;100.00
48636;BME280;34429;52.332;5.614;2022-09-17T10:08:26;101423.84;;;13.11;100.00
48636;BME280;34429;52.332;5.614;2022-09-17T10:10:57;101424.56;;;13.13;100.00
48636;BME280;34429;52.332;5.614;2022-09-17T10:13:27;101428.13;;;13.23;100.00
48636;BME280;34429;52.332;5.614;2022-09-17T10:16:14;101417.81;;;13.77;100.00
48636;BME280;34429;52.332;5.614;2022-09-17T10:18:44;101417.03;;;14.24;100.00
48636;BME280;34429;52.332;5.614;2022-09-17T10:21:17;101407.09;;;14.62;100.00
48636;BME280;34429;52.332;5.614;2022-09-17T10:23:46;101400.28;;;14.86;100.00
48636;BME280;34429;52.332;5.614;2022-09-17T10:26:21;101402.66;;;15.17;100.00
48636;BME280;34429;52.332;5.614;2022-09-17T10:28:52;101396.97;;;14.92;100.00
48636;BME280;34429;52.332;5.614;2022-09-17T10:31:25;101390.41;;;15.13;100.00
48636;BME280;34429;52.332;5.614;2022-09-17T10:33:56;101373.69;;;15.17;100.00
48636;BME280;34429;52.332;5.614;2022-09-17T10:36:36;101364.53;;;15.18;100.00
48636;BME280;34429;52.332;5.614;2022-09-17T10:39:24;101366.25;;;15.37;100.00
48636;BME280;34429;52.332;5.614;2022-09-17T10:41:57;101364.22;;;15.75;100.00
48636;BME280;34429;52.332;5.614;2022-09-17T10:44:27;101366.69;;;15.87;100.00
48636;BME280;34429;52.332;5.614;2022-09-17T10:47:05;101358.34;;;16.06;100.00
48636;BME280;34429;52.332;5.614;2022-09-17T10:49:43;101360.09;;;16.16;100.00
48636;BME280;34429;52.332;5.614;2022-09-17T10:52:22;101361.47;;;16.20;100.00
48636;BME280;34429;52.332;5.614;2022-09-17T10:55:06;101352.31;;;16.21;100.00
48636;BME280;34429;52.332;5.614;2022-09-17T10:57:47;101352.75;;;16.34;100.00
48636;BME280;34429;52.332;5.614;2022-09-17T11:00:21;101349.72;;;16.45;100.00
48636;BME280;34429;52.332;5.614;2022-09-17T11:06:13;101325.41;;;16.78;100.00
48636;BME280;34429;52.332;5.614;2022-09-17T11:08:56;101325.81;;;17.08;100.00
48636;BME280;34429;52.332;5.614;2022-09-17T11:11:33;101330.63;;;17.39;100.00
48636;BME280;34429;52.332;5.614;2022-09-17T11:14:15;101353.59;;;16.86;100.00
48636;BME280;34429;52.332;5.614;2022-09-17T11:16:53;101356.00;;;15.67;100.00
48636;BME280;34429;52.332;5.614;2022-09-17T11:19:26;101353.88;;;14.71;100.00
48636;BME280;34429;52.332;5.614;2022-09-17T11:22:05;101369.44;;;14.12;100.00
48636;BME280;34429;52.332;5.614;2022-09-17T11:24:50;101349.50;;;14.13;100.00
48636;BME280;34429;52.332;5.614;2022-09-17T11:27:37;101364.09;;;13.92;100.00
48636;BME280;34429;52.332;5.614;2022-09-17T11:30:15;101369.34;;;14.41;100.00
48636;BME280;34429;52.332;5.614;2022-09-17T11:32:59;101374.91;;;14.49;100.00
48636;BME280;34429;52.332;5.614;2022-09-17T11:35:34;101377.31;;;14.62;100.00
48636;BME280;34429;52.332;5.614;2022-09-17T11:38:11;101396.44;;;14.41;100.00
48636;BME280;34429;52.332;5.614;2022-09-17T11:40:43;101378.97;;;14.63;100.00
48636;BME280;34429;52.332;5.614;2022-09-17T11:43:20;101384.47;;;14.44;100.00
48636;BME280;34429;52.332;5.614;2022-09-17T11:45:56;101378.97;;;14.63;100.00
48636;BME280;34429;52.332;5.614;2022-09-17T11:48:31;101364.53;;;15.00;100.00
48636;BME280;34429;52.332;5.614;2022-09-17T11:51:07;101367.25;;;15.36;100.00
48636;BME280;34429;52.332;5.614;2022-09-17T11:53:47;101370.91;;;16.07;100.00
48636;BME280;34429;52.332;5.614;2022-09-17T11:56:22;101373.72;;;15.98;100.00
48636;BME280;34429;52.332;5.614;2022-09-17T11:58:59;101394.00;;;15.31;100.00
48636;BME280;34429;52.332;5.614;2022-09-17T12:01:33;101411.75;;;14.60;100.00
48636;BME280;34429;52.332;5.614;2022-09-17T12:04:26;101406.41;;;14.50;100.00
48636;BME280;34429;52.332;5.614;2022-09-17T12:07:01;101405.28;;;14.43;100.00
48636;BME280;34429;52.332;5.614;2022-09-17T12:09:39;101397.34;;;14.32;100.00
48636;BME280;34429;52.332;5.614;2022-09-17T12:12:12;101398.59;;;14.37;100.00
48636;BME280;34429;52.332;5.614;2022-09-17T12:14:45;101400.41;;;14.47;100.00
48636;BME280;34429;52.332;5.614;2022-09-17T12:17:21;101395.22;;;14.63;100.00
48636;BME280;34429;52.332;5.614;2022-09-17T12:19:53;101389.88;;;15.09;100.00
48636;BME280;34429;52.332;5.614;2022-09-17T12:22:25;101384.44;;;15.63;100.00
48636;BME280;34429;52.332;5.614;2022-09-17T12:24:59;101393.97;;;16.03;100.00
48636;BME280;34429;52.332;5.614;2022-09-17T12:27:36;101416.38;;;15.69;100.00
48636;BME280;34429;52.332;5.614;2022-09-17T12:30:10;101419.41;;;14.84;100.00
48636;BME280;34429;52.332;5.614;2022-09-17T12:35:54;101411.63;;;14.24;100.00
48636;BME280;34429;52.332;5.614;2022-09-17T12:38:40;101402.25;;;14.84;100.00
48636;BME280;34429;52.332;5.614;2022-09-17T12:41:18;101404.44;;;15.26;100.00
48636;BME280;34429;52.332;5.614;2022-09-17T12:44:01;101390.19;;;15.42;100.00
48636;BME280;34429;52.332;5.614;2022-09-17T12:46:46;101392.44;;;15.47;100.00
48636;BME280;34429;52.332;5.614;2022-09-17T12:49:33;101396.56;;;14.87;100.00
48636;BME280;34429;52.332;5.614;2022-09-17T12:52:09;101382.94;;;14.97;100.00
48636;BME280;34429;52.332;5.614;2022-09-17T12:54:52;101394.13;;;15.12;100.00
48636;BME280;34429;52.332;5.614;2022-09-17T12:57:34;101398.09;;;15.17;100.00
48636;BME280;34429;52.332;5.614;2022-09-17T13:00:09;101391.03;;;15.06;100.00
48636;BME280;34429;52.332;5.614;2022-09-17T13:02:40;101380.50;;;15.39;100.00
48636;BME280;34429;52.332;5.614;2022-09-17T13:05:34;101376.06;;;15.92;100.00
48636;BME280;34429;52.332;5.614;2022-09-17T13:08:37;101370.63;;;16.19;100.00
48636;BME280;34429;52.332;5.614;2022-09-17T13:14:18;101369.88;;;15.82;100.00
48636;BME280;34429;52.332;5.614;2022-09-17T13:16:54;101378.19;;;15.81;100.00
48636;BME280;34429;52.332;5.614;2022-09-17T13:19:32;101371.81;;;15.18;100.00
48636;BME280;34429;52.332;5.614;2022-09-17T13:22:05;101375.41;;;14.73;100.00